createdAt,value
2023-05-03T00:01:01.780Z,2.50
2023-05-03T00:03:54.114Z,3.00
2023-05-03T00:06:45.432Z,2.30
2023-05-03T00:09:36.869Z,1.90
2023-05-03T00:12:26.275Z,1.70
2023-05-03T00:15:18.192Z,2.63
2023-05-03T00:18:07.858Z,2.13
2023-05-03T00:20:57.437Z,2.30
2023-05-03T00:23:48.288Z,2.60
2023-05-03T00:26:38.097Z,4.57
2023-05-03T00:29:27.446Z,2.47
2023-05-03T00:32:16.866Z,2.77
2023-05-03T00:35:07.048Z,2.43
2023-05-03T00:37:56.398Z,1.87
2023-05-03T00:40:47.505Z,2.47
2023-05-03T00:43:38.180Z,3.60
2023-05-03T00:46:27.898Z,2.17
2023-05-03T00:49:17.246Z,2.00
2023-05-03T00:52:07.480Z,4.07
2023-05-03T00:54:57.761Z,2.50
2023-05-03T00:57:49.369Z,3.63
2023-05-03T01:00:39.148Z,3.03
2023-05-03T01:03:29.467Z,3.67
2023-05-03T01:06:32.815Z,2.90
2023-05-03T01:09:29.673Z,3.30
2023-05-03T01:12:30.269Z,2.73
2023-05-03T01:15:41.150Z,5.50
2023-05-03T01:18:34.504Z,3.57
2023-05-03T01:21:25.148Z,5.60
2023-05-03T01:24:19.729Z,5.60
2023-05-03T01:27:12.557Z,4.50
2023-05-03T01:30:02.057Z,3.03
2023-05-03T01:33:00.390Z,4.00
2023-05-03T01:35:54.809Z,4.47
2023-05-03T01:38:44.827Z,3.60
2023-05-03T01:41:36.613Z,3.83
2023-05-03T01:44:28.881Z,5.13
2023-05-03T01:47:18.385Z,8.27
2023-05-03T01:50:08.439Z,9.43
2023-05-03T01:52:57.649Z,8.07
2023-05-03T01:55:47.593Z,6.03
2023-05-03T01:58:37.050Z,6.27
2023-05-03T02:01:27.813Z,6.33
2023-05-03T02:04:17.730Z,6.93
2023-05-03T02:07:07.072Z,4.97
2023-05-03T02:09:56.819Z,7.07
2023-05-03T02:12:35.159Z,7.87
2023-05-03T02:15:24.872Z,4.70
2023-05-03T02:18:16.801Z,6.13
2023-05-03T02:21:07.341Z,8.00
2023-05-03T02:23:56.829Z,7.63
2023-05-03T02:26:46.191Z,7.57
2023-05-03T02:29:36.479Z,6.23
2023-05-03T02:32:25.970Z,6.77
2023-05-03T02:35:17.217Z,7.90
2023-05-03T02:38:06.899Z,9.03
2023-05-03T02:40:56.249Z,6.07
2023-05-03T02:43:45.768Z,4.77
2023-05-03T02:46:35.412Z,5.13
2023-05-03T02:49:24.959Z,8.23
2023-05-03T02:52:16.358Z,5.60
2023-05-03T02:55:10.543Z,4.47
2023-05-03T02:57:59.888Z,4.43
2023-05-03T03:00:49.410Z,5.80
2023-05-03T03:03:39.075Z,5.07
2023-05-03T03:06:28.920Z,4.23
2023-05-03T03:09:22.789Z,6.93
2023-05-03T03:12:12.232Z,6.07
2023-05-03T03:15:01.808Z,4.23
2023-05-03T03:17:51.451Z,5.17
2023-05-03T03:20:40.799Z,7.90
2023-05-03T03:23:30.233Z,4.80
2023-05-03T03:26:21.072Z,5.97
2023-05-03T03:29:11.401Z,5.93
2023-05-03T03:32:01.329Z,6.37
2023-05-03T03:34:50.956Z,5.17
2023-05-03T03:37:41.484Z,7.03
2023-05-03T03:40:31.417Z,5.43
2023-05-03T03:43:22.236Z,4.57
2023-05-03T03:46:11.594Z,5.27
2023-05-03T03:49:01.455Z,5.37
2023-05-03T03:51:50.790Z,4.40
2023-05-03T03:54:40.115Z,5.50
2023-05-03T03:57:31.023Z,3.67
2023-05-03T04:00:22.160Z,4.97
2023-05-03T04:03:12.036Z,3.97
2023-05-03T04:06:01.966Z,5.10
2023-05-03T04:08:51.451Z,5.10
2023-05-03T04:11:40.858Z,4.63
2023-05-03T04:14:33.372Z,7.73
2023-05-03T04:17:24.435Z,5.03
2023-05-03T04:20:14.910Z,4.53
2023-05-03T04:23:04.539Z,5.27
2023-05-03T04:25:53.917Z,5.00
2023-05-03T04:28:43.360Z,4.63
2023-05-03T04:31:33.094Z,5.63
2023-05-03T04:34:24.100Z,4.10
2023-05-03T04:37:13.938Z,4.13
2023-05-03T04:40:05.954Z,6.07
2023-05-03T04:42:56.154Z,6.37
2023-05-03T04:45:45.472Z,3.90
2023-05-03T04:48:36.909Z,6.30
2023-05-03T04:51:28.996Z,3.37
2023-05-03T04:54:18.479Z,3.53
2023-05-03T04:57:07.799Z,4.37
2023-05-03T05:00:00.777Z,3.73
2023-05-03T05:02:51.321Z,5.47
2023-05-03T05:05:41.152Z,3.97
2023-05-03T05:08:32.052Z,4.47
2023-05-03T05:11:22.694Z,6.33
2023-05-03T05:14:15.070Z,5.77
2023-05-03T05:17:05.106Z,4.00
2023-05-03T05:19:55.028Z,3.47
2023-05-03T05:22:44.785Z,3.97
2023-05-03T05:25:35.831Z,2.50
2023-05-03T05:28:25.294Z,3.27
2023-05-03T05:31:16.463Z,2.70
2023-05-03T05:34:07.037Z,2.83
2023-05-03T05:37:21.115Z,2.60
2023-05-03T05:40:11.956Z,2.80
2023-05-03T05:43:03.387Z,2.40
2023-05-03T05:45:53.188Z,2.30
2023-05-03T05:48:43.866Z,3.33
2023-05-03T05:51:33.355Z,2.50
2023-05-03T05:54:22.990Z,2.57
2023-05-03T05:57:13.090Z,2.47
2023-05-03T06:00:09.729Z,2.93
2023-05-03T06:02:59.488Z,3.37
2023-05-03T06:05:50.496Z,2.10
2023-05-03T06:08:40.292Z,3.53
2023-05-03T06:11:44.098Z,2.47
2023-05-03T06:14:33.553Z,3.10
2023-05-03T06:17:25.994Z,2.27
2023-05-03T06:20:18.414Z,2.83
2023-05-03T06:23:08.078Z,2.80
2023-05-03T06:25:59.675Z,4.47
2023-05-03T06:28:49.073Z,4.13
2023-05-03T06:31:39.477Z,2.63
2023-05-03T06:34:30.939Z,2.00
2023-05-03T06:37:23.419Z,3.33
2023-05-03T06:40:37.064Z,1.67
2023-05-03T06:43:38.426Z,1.80
2023-05-03T06:46:29.901Z,2.47
2023-05-03T06:49:19.510Z,1.97
2023-05-03T06:52:11.868Z,1.83
2023-05-03T06:55:38.840Z,1.90
2023-05-03T06:59:26.700Z,2.97
2023-05-03T07:02:44.658Z,2.63
2023-05-03T07:06:04.760Z,3.40
2023-05-03T07:09:05.516Z,3.30
2023-05-03T07:12:23.152Z,1.70
2023-05-03T07:15:13.732Z,2.17
2023-05-03T07:18:12.133Z,1.83
2023-05-03T07:21:30.966Z,2.47
2023-05-03T07:24:27.457Z,3.00
2023-05-03T07:27:55.050Z,3.00
2023-05-03T07:31:13.211Z,1.67
2023-05-03T07:34:28.654Z,1.93
2023-05-03T07:37:47.950Z,3.60
2023-05-03T07:41:08.190Z,1.70
2023-05-03T07:44:40.113Z,5.10
2023-05-03T07:47:38.705Z,1.80
2023-05-03T07:55:12.349Z,2.50
2023-05-03T08:01:29.909Z,1.50
2023-05-03T08:04:53.000Z,1.50
2023-05-03T08:08:48.433Z,1.63
2023-05-03T08:11:40.995Z,2.70
2023-05-03T08:14:54.295Z,2.23
2023-05-03T08:18:11.393Z,1.57
2023-05-03T08:21:57.631Z,1.60
2023-05-03T08:25:22.648Z,1.53
2023-05-03T08:32:41.230Z,1.43
2023-05-03T08:36:03.313Z,1.40
2023-05-03T08:38:58.622Z,1.40
2023-05-03T08:42:08.617Z,1.30
2023-05-03T08:55:37.989Z,1.13
2023-05-03T08:58:27.550Z,1.50
2023-05-03T09:01:17.053Z,1.40
2023-05-03T09:04:14.831Z,1.30
2023-05-03T09:07:26.894Z,1.37
2023-05-03T09:10:38.794Z,1.60
2023-05-03T09:13:33.752Z,2.00
2023-05-03T09:21:05.395Z,1.00
2023-05-03T09:24:39.642Z,0.90
2023-05-03T09:31:24.554Z,0.80
2023-05-03T09:35:21.424Z,1.00
2023-05-03T09:38:39.976Z,1.63
2023-05-03T09:45:57.464Z,1.10
2023-05-03T09:52:53.777Z,1.10
2023-05-03T09:57:02.845Z,0.80
2023-05-03T10:00:09.029Z,0.90
2023-05-03T10:03:44.754Z,1.10
2023-05-03T10:06:58.054Z,1.03
2023-05-03T10:14:31.282Z,0.97
2023-05-03T10:17:43.632Z,0.97
2023-05-03T10:21:03.401Z,1.37
2023-05-03T10:24:47.986Z,1.20
2023-05-03T10:28:08.600Z,0.70
2023-05-03T10:31:10.332Z,1.10
2023-05-03T10:34:00.165Z,1.07
2023-05-03T10:36:53.756Z,0.80
2023-05-03T10:39:59.521Z,2.00
2023-05-03T10:42:56.662Z,1.23
2023-05-03T10:46:09.717Z,1.17
2023-05-03T10:49:35.422Z,1.20
2023-05-03T10:52:55.636Z,1.30
2023-05-03T10:56:05.983Z,1.20
2023-05-03T11:02:29.966Z,1.40
2023-05-03T11:05:21.084Z,2.20
2023-05-03T11:08:24.297Z,3.07
2023-05-03T11:11:33.336Z,1.50
2023-05-03T11:14:33.426Z,1.30
2023-05-03T11:17:26.190Z,1.13
2023-05-03T11:20:26.279Z,1.20
2023-05-03T11:23:24.675Z,2.23
2023-05-03T11:26:17.852Z,1.40
2023-05-03T11:29:08.022Z,1.67
2023-05-03T11:31:58.781Z,1.20
2023-05-03T11:34:48.578Z,1.30
2023-05-03T11:37:38.286Z,1.87
2023-05-03T11:40:55.419Z,1.60
2023-05-03T11:44:17.647Z,2.17
2023-05-03T11:47:11.018Z,2.60
2023-05-03T11:50:07.494Z,1.37
2023-05-03T11:53:02.425Z,1.30
2023-05-03T11:55:56.064Z,1.20
2023-05-03T11:59:07.986Z,2.67
2023-05-03T12:01:57.719Z,1.00
2023-05-03T12:04:55.355Z,2.73
2023-05-03T12:07:48.493Z,0.80
2023-05-03T12:10:49.667Z,0.90
2023-05-03T12:13:44.143Z,1.83
2023-05-03T12:16:53.102Z,1.47
2023-05-03T12:19:44.192Z,1.30
2023-05-03T12:22:56.544Z,2.10
2023-05-03T12:25:57.315Z,1.17
2023-05-03T12:28:50.194Z,1.10
2023-05-03T12:31:56.000Z,1.17
2023-05-03T12:35:14.190Z,1.47
2023-05-03T12:38:09.673Z,1.30
2023-05-03T12:41:15.940Z,1.30
2023-05-03T12:44:18.609Z,1.00
2023-05-03T12:47:16.926Z,1.30
2023-05-03T12:50:19.108Z,1.20
2023-05-03T12:53:19.180Z,1.17
2023-05-03T12:56:13.623Z,1.00
2023-05-03T13:05:12.668Z,1.20
2023-05-03T13:08:22.530Z,1.10
2023-05-03T13:11:40.268Z,1.17
2023-05-03T13:14:30.612Z,2.17
2023-05-03T13:17:24.846Z,1.10
2023-05-03T13:20:16.082Z,1.13
2023-05-03T13:23:06.052Z,1.70
2023-05-03T13:25:57.917Z,1.67
2023-05-03T13:28:51.017Z,1.30
2023-05-03T13:31:40.826Z,1.23
2023-05-03T13:34:31.960Z,1.40
2023-05-03T13:37:22.921Z,1.37
2023-05-03T13:40:17.937Z,1.20
2023-05-03T13:43:08.588Z,1.53
2023-05-03T13:46:03.685Z,1.50
2023-05-03T13:48:55.474Z,1.53
2023-05-03T13:51:46.984Z,1.20
2023-05-03T13:55:11.658Z,0.90
2023-05-03T13:58:13.724Z,1.00
2023-05-03T14:01:06.675Z,1.43
2023-05-03T14:03:57.139Z,1.00
2023-05-03T14:07:27.901Z,1.27
2023-05-03T14:10:18.688Z,2.00
2023-05-03T14:13:08.866Z,1.20
2023-05-03T14:16:03.950Z,2.00
2023-05-03T14:18:57.405Z,2.03
2023-05-03T14:21:52.540Z,1.87
2023-05-03T14:24:43.295Z,2.47
2023-05-03T14:27:33.668Z,6.63
2023-05-03T14:30:28.608Z,1.40
2023-05-03T14:33:18.150Z,1.00
2023-05-03T14:36:10.212Z,2.93
2023-05-03T14:39:01.705Z,1.30
2023-05-03T14:41:51.897Z,2.87
2023-05-03T14:44:44.190Z,1.40
2023-05-03T14:47:36.478Z,1.10
2023-05-03T14:50:25.823Z,1.77
2023-05-03T14:53:15.368Z,2.93
2023-05-03T14:56:07.878Z,2.03
2023-05-03T14:58:57.354Z,1.20
2023-05-03T15:02:01.027Z,1.40
2023-05-03T15:04:50.652Z,1.43
2023-05-03T15:07:45.940Z,2.13
2023-05-03T15:10:39.620Z,1.40
2023-05-03T15:13:31.763Z,1.67
2023-05-03T15:16:23.370Z,1.60
2023-05-03T15:19:14.267Z,1.53
2023-05-03T15:22:04.260Z,1.33
2023-05-03T15:24:56.707Z,1.43
2023-05-03T15:27:52.931Z,1.43
2023-05-03T15:30:44.169Z,1.30
2023-05-03T15:33:43.301Z,1.07
2023-05-03T15:36:33.391Z,1.50
2023-05-03T15:39:24.966Z,2.97
2023-05-03T15:42:14.977Z,1.20
2023-05-03T15:45:04.660Z,1.83
2023-05-03T15:47:56.604Z,1.27
2023-05-03T15:50:46.053Z,2.53
2023-05-03T15:53:35.788Z,1.30
2023-05-03T15:56:26.182Z,1.97
2023-05-03T15:59:17.632Z,3.00
2023-05-03T16:02:07.858Z,1.47
2023-05-03T16:04:59.509Z,3.73
2023-05-03T16:07:49.870Z,1.60
2023-05-03T16:10:40.232Z,1.60
2023-05-03T16:13:30.533Z,1.50
2023-05-03T16:16:20.314Z,1.50
2023-05-03T16:19:09.775Z,7.40
2023-05-03T16:22:00.974Z,1.90
2023-05-03T16:24:51.127Z,2.30
2023-05-03T16:27:41.690Z,5.10
2023-05-03T16:30:34.377Z,4.00
2023-05-03T16:33:24.664Z,1.50
2023-05-03T16:36:20.646Z,7.63
2023-05-03T16:39:13.360Z,3.43
2023-05-03T16:42:04.335Z,2.73
2023-05-03T16:44:57.959Z,9.27
2023-05-03T16:47:51.855Z,7.10
2023-05-03T16:50:44.956Z,7.30
2023-05-03T16:53:35.095Z,6.13
2023-05-03T16:56:30.277Z,4.83
2023-05-03T16:59:20.512Z,3.73
2023-05-03T17:02:11.728Z,4.27
2023-05-03T17:05:01.454Z,5.07
2023-05-03T17:07:51.525Z,6.97
2023-05-03T17:10:40.877Z,3.27
2023-05-03T17:13:33.036Z,39.40
2023-05-03T17:16:23.858Z,5.03
2023-05-03T17:19:13.249Z,5.97
2023-05-03T17:22:02.683Z,4.63
2023-05-03T17:24:55.408Z,5.33
2023-05-03T17:27:49.491Z,6.43
2023-05-03T17:30:40.540Z,4.43
2023-05-03T17:33:30.272Z,4.20
2023-05-03T17:36:22.195Z,6.03
2023-05-03T17:39:18.514Z,4.90
2023-05-03T17:42:15.467Z,5.30
2023-05-03T17:45:30.422Z,6.13
2023-05-03T17:48:33.124Z,5.63
2023-05-03T17:51:31.793Z,3.83
2023-05-03T17:54:29.686Z,4.77
2023-05-03T17:57:25.877Z,5.40
2023-05-03T18:00:20.803Z,3.60
2023-05-03T18:03:18.139Z,3.17
2023-05-03T18:06:17.272Z,4.50
2023-05-03T18:09:13.888Z,3.83
2023-05-03T18:12:11.204Z,3.23
2023-05-03T18:15:12.748Z,2.40
2023-05-03T18:18:08.399Z,2.40
2023-05-03T18:21:06.102Z,3.50
2023-05-03T18:23:57.908Z,2.17
2023-05-03T18:26:48.643Z,3.77
2023-05-03T18:29:38.512Z,2.70
2023-05-03T18:32:28.752Z,2.30
2023-05-03T18:35:24.105Z,3.33
2023-05-03T18:38:24.829Z,3.03
2023-05-03T18:41:19.527Z,2.13
2023-05-03T18:44:12.096Z,7.47
2023-05-03T18:47:10.050Z,5.90
2023-05-03T18:50:07.130Z,4.20
2023-05-03T18:53:04.067Z,3.27
2023-05-03T18:55:55.082Z,2.23
2023-05-03T18:58:50.173Z,3.27
2023-05-03T19:01:49.493Z,3.07
2023-05-03T19:04:43.607Z,2.60
2023-05-03T19:07:36.011Z,2.73
2023-05-03T19:10:29.453Z,2.47
2023-05-03T19:13:20.300Z,4.20
2023-05-03T19:16:12.782Z,4.40
2023-05-03T19:19:04.983Z,2.40
2023-05-03T19:21:55.501Z,3.77
2023-05-03T19:24:47.209Z,3.13
2023-05-03T19:27:39.096Z,3.97
2023-05-03T19:30:28.831Z,4.70
2023-05-03T19:33:21.673Z,3.90
2023-05-03T19:36:15.875Z,4.03
2023-05-03T19:39:07.871Z,3.77
2023-05-03T19:42:01.358Z,4.30
2023-05-03T19:44:54.666Z,5.13
2023-05-03T19:47:47.524Z,6.73
2023-05-03T19:50:41.249Z,7.33
2023-05-03T19:53:32.194Z,8.60
2023-05-03T19:56:22.215Z,8.93
2023-05-03T19:59:12.213Z,9.37
2023-05-03T20:02:06.469Z,11.07
2023-05-03T20:04:58.039Z,9.97
2023-05-03T20:07:50.636Z,9.57
2023-05-03T20:10:41.066Z,10.13
2023-05-03T20:13:31.015Z,13.37
2023-05-03T20:16:21.981Z,13.30
2023-05-03T20:19:16.119Z,13.80
2023-05-03T20:22:06.567Z,14.07
2023-05-03T20:24:58.684Z,12.93
2023-05-03T20:27:49.279Z,13.53
2023-05-03T20:30:39.069Z,14.53
2023-05-03T20:33:29.484Z,12.33
2023-05-03T20:36:19.090Z,14.07
2023-05-03T20:39:09.982Z,16.33
2023-05-03T20:42:00.998Z,12.60
2023-05-03T20:44:53.468Z,13.63
2023-05-03T20:47:42.918Z,14.67
2023-05-03T20:50:33.059Z,14.47
2023-05-03T20:53:22.760Z,17.33
2023-05-03T20:56:12.910Z,14.40
2023-05-03T20:59:04.581Z,17.33
2023-05-03T21:01:54.037Z,17.30
2023-05-03T21:04:43.716Z,15.00
2023-05-03T21:07:33.402Z,14.87
2023-05-03T21:10:22.748Z,13.00
2023-05-03T21:13:12.176Z,14.13
2023-05-03T21:16:03.369Z,14.53
2023-05-03T21:18:54.301Z,15.43
2023-05-03T21:21:44.046Z,15.17
2023-05-03T21:24:33.477Z,16.77
2023-05-03T21:27:23.130Z,14.97
2023-05-03T21:30:14.068Z,13.70
2023-05-03T21:33:04.961Z,16.47
2023-05-03T21:35:54.629Z,17.07
2023-05-03T21:38:44.017Z,14.87
2023-05-03T21:41:33.802Z,14.77
2023-05-03T21:44:23.089Z,15.10
2023-05-03T21:47:13.881Z,16.30
2023-05-03T21:50:06.697Z,14.90
2023-05-03T21:52:56.394Z,13.17
2023-05-03T21:55:46.966Z,12.67
2023-05-03T21:58:36.490Z,13.30
2023-05-03T22:01:26.022Z,9.40
2023-05-03T22:04:15.356Z,11.87
2023-05-03T22:07:06.439Z,10.77
2023-05-03T22:09:55.794Z,9.87
2023-05-03T22:12:45.995Z,9.10
2023-05-03T22:15:35.674Z,11.87
2023-05-03T22:18:28.422Z,12.63
2023-05-03T22:21:19.015Z,12.23
2023-05-03T22:24:10.593Z,12.13
2023-05-03T22:27:00.881Z,12.03
2023-05-03T22:29:50.185Z,13.37
2023-05-03T22:32:40.303Z,14.57
2023-05-03T22:35:29.658Z,15.80
2023-05-03T22:38:19.055Z,13.40
2023-05-03T22:41:10.318Z,14.00
2023-05-03T22:44:03.467Z,13.47
2023-05-03T22:46:54.499Z,13.93
2023-05-03T22:49:44.256Z,12.10
2023-05-03T22:52:33.808Z,14.83
2023-05-03T22:55:23.564Z,14.27
2023-05-03T22:58:15.075Z,16.77
2023-05-03T23:01:04.911Z,13.50
2023-05-03T23:03:54.669Z,14.93
2023-05-03T23:06:44.203Z,13.53
2023-05-03T23:09:33.712Z,14.60
2023-05-03T23:12:23.057Z,13.40
2023-05-03T23:15:14.531Z,13.90
2023-05-03T23:18:04.159Z,14.70
2023-05-03T23:20:54.141Z,12.33
2023-05-03T23:23:44.004Z,12.47
2023-05-03T23:26:33.438Z,14.43
2023-05-03T23:29:23.778Z,15.17
2023-05-03T23:32:15.588Z,12.37
2023-05-03T23:35:06.379Z,14.70
2023-05-03T23:37:55.854Z,14.53
2023-05-03T23:40:45.457Z,11.23
2023-05-03T23:43:34.738Z,13.00
2023-05-03T23:46:24.697Z,12.07
2023-05-03T23:49:15.665Z,12.90
2023-05-03T23:52:05.154Z,11.87
2023-05-03T23:54:54.891Z,12.33
2023-05-03T23:57:44.323Z,11.90
